sensor_id;sensor_type;location;lat;lon;timestamp;P1;durP1;ratioP1;P2;durP2;ratioP2
37409;SDS011;23275;48.914;12.566;2023-03-01T00:01:22;20.33;;;11.45;;
37409;SDS011;23275;48.914;12.566;2023-03-01T00:03:49;18.63;;;11.15;;
37409;SDS011;23275;48.914;12.566;2023-03-01T00:06:16;25.67;;;12.55;;
37409;SDS011;23275;48.914;12.566;2023-03-01T00:08:41;19.80;;;11.52;;
37409;SDS011;23275;48.914;12.566;2023-03-01T00:13:42;19.73;;;11.20;;
37409;SDS011;23275;48.914;12.566;2023-03-01T00:16:13;19.83;;;11.45;;
37409;SDS011;23275;48.914;12.566;2023-03-01T00:18:41;20.05;;;12.57;;
37409;SDS011;23275;48.914;12.566;2023-03-01T00:21:06;20.92;;;12.43;;
37409;SDS011;23275;48.914;12.566;2023-03-01T00:23:35;22.60;;;12.18;;
37409;SDS011;23275;48.914;12.566;2023-03-01T00:26:01;21.70;;;12.18;;
37409;SDS011;23275;48.914;12.566;2023-03-01T00:28:31;21.80;;;11.70;;
37409;SDS011;23275;48.914;12.566;2023-03-01T00:30:57;20.05;;;12.55;;
37409;SDS011;23275;48.914;12.566;2023-03-01T00:33:28;21.52;;;11.57;;
37409;SDS011;23275;48.914;12.566;2023-03-01T00:35:54;19.42;;;11.35;;
37409;SDS011;23275;48.914;12.566;2023-03-01T00:38:19;20.60;;;11.43;;
37409;SDS011;23275;48.914;12.566;2023-03-01T00:40:45;21.27;;;12.23;;
37409;SDS011;23275;48.914;12.566;2023-03-01T00:43:10;22.83;;;13.40;;
37409;SDS011;23275;48.914;12.566;2023-03-01T00:45:36;20.73;;;11.75;;
37409;SDS011;23275;48.914;12.566;2023-03-01T00:48:01;21.15;;;12.57;;
37409;SDS011;23275;48.914;12.566;2023-03-01T00:50:27;20.92;;;12.10;;
37409;SDS011;23275;48.914;12.566;2023-03-01T00:52:53;23.02;;;12.18;;
37409;SDS011;23275;48.914;12.566;2023-03-01T00:55:20;20.67;;;12.45;;
37409;SDS011;23275;48.914;12.566;2023-03-01T00:57:46;21.95;;;11.90;;
37409;SDS011;23275;48.914;12.566;2023-03-01T01:00:11;22.27;;;12.10;;
37409;SDS011;23275;48.914;12.566;2023-03-01T01:02:37;21.70;;;12.30;;
37409;SDS011;23275;48.914;12.566;2023-03-01T01:05:03;22.80;;;12.57;;
37409;SDS011;23275;48.914;12.566;2023-03-01T01:07:29;22.85;;;13.30;;
37409;SDS011;23275;48.914;12.566;2023-03-01T01:09:55;23.70;;;12.95;;
37409;SDS011;23275;48.914;12.566;2023-03-01T01:12:20;22.00;;;12.75;;
37409;SDS011;23275;48.914;12.566;2023-03-01T01:14:46;21.58;;;12.32;;
37409;SDS011;23275;48.914;12.566;2023-03-01T01:17:12;22.45;;;12.52;;
37409;SDS011;23275;48.914;12.566;2023-03-01T01:19:37;21.98;;;12.82;;
37409;SDS011;23275;48.914;12.566;2023-03-01T01:22:03;22.45;;;12.90;;
37409;SDS011;23275;48.914;12.566;2023-03-01T01:24:29;23.73;;;12.65;;
37409;SDS011;23275;48.914;12.566;2023-03-01T01:26:55;21.15;;;12.43;;
37409;SDS011;23275;48.914;12.566;2023-03-01T01:29:20;25.15;;;13.65;;
37409;SDS011;23275;48.914;12.566;2023-03-01T01:31:46;21.92;;;13.70;;
37409;SDS011;23275;48.914;12.566;2023-03-01T01:34:15;21.67;;;12.85;;
37409;SDS011;23275;48.914;12.566;2023-03-01T01:36:43;25.42;;;13.95;;
37409;SDS011;23275;48.914;12.566;2023-03-01T01:39:12;27.85;;;13.65;;
37409;SDS011;23275;48.914;12.566;2023-03-01T01:41:38;23.70;;;12.82;;
37409;SDS011;23275;48.914;12.566;2023-03-01T01:46:38;27.63;;;14.68;;
37409;SDS011;23275;48.914;12.566;2023-03-01T01:51:55;25.63;;;13.27;;
37409;SDS011;23275;48.914;12.566;2023-03-01T01:54:53;25.02;;;13.38;;
37409;SDS011;23275;48.914;12.566;2023-03-01T01:57:27;28.95;;;13.68;;
37409;SDS011;23275;48.914;12.566;2023-03-01T02:00:03;25.50;;;14.13;;
37409;SDS011;23275;48.914;12.566;2023-03-01T02:02:32;24.50;;;13.70;;
37409;SDS011;23275;48.914;12.566;2023-03-01T02:08:11;25.02;;;13.32;;
37409;SDS011;23275;48.914;12.566;2023-03-01T02:10:38;28.70;;;14.43;;
37409;SDS011;23275;48.914;12.566;2023-03-01T02:13:05;24.15;;;14.10;;
37409;SDS011;23275;48.914;12.566;2023-03-01T02:15:32;23.90;;;13.88;;
37409;SDS011;23275;48.914;12.566;2023-03-01T02:18:00;24.83;;;14.05;;
37409;SDS011;23275;48.914;12.566;2023-03-01T02:22:55;27.35;;;14.35;;
37409;SDS011;23275;48.914;12.566;2023-03-01T02:30:38;25.45;;;13.98;;
37409;SDS011;23275;48.914;12.566;2023-03-01T02:33:25;23.20;;;13.02;;
37409;SDS011;23275;48.914;12.566;2023-03-01T02:35:51;27.15;;;13.95;;
37409;SDS011;23275;48.914;12.566;2023-03-01T02:38:19;28.33;;;13.75;;
37409;SDS011;23275;48.914;12.566;2023-03-01T02:40:46;24.75;;;13.30;;
37409;SDS011;23275;48.914;12.566;2023-03-01T02:43:13;28.50;;;15.23;;
37409;SDS011;23275;48.914;12.566;2023-03-01T02:45:43;30.45;;;15.48;;
37409;SDS011;23275;48.914;12.566;2023-03-01T02:48:17;27.55;;;14.27;;
37409;SDS011;23275;48.914;12.566;2023-03-01T02:53:24;24.98;;;14.05;;
37409;SDS011;23275;48.914;12.566;2023-03-01T02:55:57;28.85;;;14.55;;
37409;SDS011;23275;48.914;12.566;2023-03-01T02:58:24;26.20;;;15.15;;
37409;SDS011;23275;48.914;12.566;2023-03-01T03:00:50;27.50;;;15.07;;
37409;SDS011;23275;48.914;12.566;2023-03-01T03:03:19;30.30;;;15.30;;
37409;SDS011;23275;48.914;12.566;2023-03-01T03:05:46;25.20;;;14.27;;
37409;SDS011;23275;48.914;12.566;2023-03-01T03:08:12;27.38;;;14.18;;
37409;SDS011;23275;48.914;12.566;2023-03-01T03:10:40;29.10;;;14.40;;
37409;SDS011;23275;48.914;12.566;2023-03-01T03:13:07;25.35;;;14.20;;
37409;SDS011;23275;48.914;12.566;2023-03-01T03:15:38;29.25;;;15.68;;
37409;SDS011;23275;48.914;12.566;2023-03-01T03:18:06;26.10;;;14.38;;
37409;SDS011;23275;48.914;12.566;2023-03-01T03:20:34;25.95;;;14.00;;
37409;SDS011;23275;48.914;12.566;2023-03-01T03:23:00;24.45;;;13.93;;
37409;SDS011;23275;48.914;12.566;2023-03-01T03:25:26;25.13;;;13.98;;
37409;SDS011;23275;48.914;12.566;2023-03-01T03:27:53;28.42;;;14.77;;
37409;SDS011;23275;48.914;12.566;2023-03-01T03:30:21;29.55;;;15.80;;
37409;SDS011;23275;48.914;12.566;2023-03-01T03:32:48;28.35;;;15.15;;
37409;SDS011;23275;48.914;12.566;2023-03-01T03:35:24;27.27;;;13.60;;
37409;SDS011;23275;48.914;12.566;2023-03-01T03:37:53;28.73;;;14.98;;
37409;SDS011;23275;48.914;12.566;2023-03-01T03:40:29;27.75;;;14.77;;
37409;SDS011;23275;48.914;12.566;2023-03-01T03:42:56;27.80;;;13.90;;
37409;SDS011;23275;48.914;12.566;2023-03-01T03:45:22;27.02;;;14.52;;
37409;SDS011;23275;48.914;12.566;2023-03-01T03:47:47;28.90;;;14.35;;
37409;SDS011;23275;48.914;12.566;2023-03-01T03:50:14;30.83;;;14.95;;
37409;SDS011;23275;48.914;12.566;2023-03-01T03:52:41;25.35;;;14.77;;
37409;SDS011;23275;48.914;12.566;2023-03-01T03:55:07;30.75;;;15.57;;
37409;SDS011;23275;48.914;12.566;2023-03-01T03:57:34;27.88;;;15.63;;
37409;SDS011;23275;48.914;12.566;2023-03-01T04:00:00;29.05;;;15.70;;
37409;SDS011;23275;48.914;12.566;2023-03-01T04:02:26;29.40;;;14.82;;
37409;SDS011;23275;48.914;12.566;2023-03-01T04:04:51;25.55;;;14.07;;
37409;SDS011;23275;48.914;12.566;2023-03-01T04:07:17;27.73;;;13.65;;
37409;SDS011;23275;48.914;12.566;2023-03-01T04:09:43;25.75;;;14.32;;
37409;SDS011;23275;48.914;12.566;2023-03-01T04:12:09;27.05;;;13.98;;
37409;SDS011;23275;48.914;12.566;2023-03-01T04:14:35;24.20;;;14.57;;
37409;SDS011;23275;48.914;12.566;2023-03-01T04:17:01;27.52;;;14.93;;
37409;SDS011;23275;48.914;12.566;2023-03-01T04:19:30;25.77;;;13.75;;
37409;SDS011;23275;48.914;12.566;2023-03-01T04:22:00;30.00;;;15.10;;
37409;SDS011;23275;48.914;12.566;2023-03-01T04:24:32;27.52;;;14.32;;
37409;SDS011;23275;48.914;12.566;2023-03-01T04:26:58;24.73;;;14.40;;
37409;SDS011;23275;48.914;12.566;2023-03-01T04:29:23;30.58;;;14.40;;
37409;SDS011;23275;48.914;12.566;2023-03-01T04:31:49;28.25;;;14.18;;
37409;SDS011;23275;48.914;12.566;2023-03-01T04:34:14;27.92;;;14.07;;
37409;SDS011;23275;48.914;12.566;2023-03-01T04:36:40;27.67;;;13.07;;
37409;SDS011;23275;48.914;12.566;2023-03-01T04:39:05;28.40;;;15.23;;
37409;SDS011;23275;48.914;12.566;2023-03-01T04:41:37;29.55;;;15.82;;
37409;SDS011;23275;48.914;12.566;2023-03-01T04:44:04;25.08;;;14.32;;
37409;SDS011;23275;48.914;12.566;2023-03-01T04:46:30;26.95;;;15.10;;
37409;SDS011;23275;48.914;12.566;2023-03-01T04:48:56;27.55;;;15.10;;
37409;SDS011;23275;48.914;12.566;2023-03-01T04:51:22;29.58;;;15.45;;
37409;SDS011;23275;48.914;12.566;2023-03-01T04:53:47;25.38;;;14.40;;
37409;SDS011;23275;48.914;12.566;2023-03-01T04:56:13;24.55;;;14.10;;
37409;SDS011;23275;48.914;12.566;2023-03-01T04:58:40;29.95;;;14.82;;
37409;SDS011;23275;48.914;12.566;2023-03-01T05:01:13;27.48;;;15.20;;
37409;SDS011;23275;48.914;12.566;2023-03-01T05:03:40;25.83;;;14.20;;
37409;SDS011;23275;48.914;12.566;2023-03-01T05:06:07;25.42;;;14.45;;
37409;SDS011;23275;48.914;12.566;2023-03-01T05:08:33;23.25;;;12.80;;
37409;SDS011;23275;48.914;12.566;2023-03-01T05:11:02;27.08;;;15.07;;
37409;SDS011;23275;48.914;12.566;2023-03-01T05:13:27;27.40;;;14.10;;
37409;SDS011;23275;48.914;12.566;2023-03-01T05:15:55;25.48;;;14.07;;
37409;SDS011;23275;48.914;12.566;2023-03-01T05:18:23;30.10;;;14.32;;
37409;SDS011;23275;48.914;12.566;2023-03-01T05:20:52;25.30;;;14.75;;
37409;SDS011;23275;48.914;12.566;2023-03-01T05:23:22;26.25;;;13.63;;
37409;SDS011;23275;48.914;12.566;2023-03-01T05:25:49;27.17;;;14.73;;
37409;SDS011;23275;48.914;12.566;2023-03-01T05:28:17;31.20;;;14.80;;
37409;SDS011;23275;48.914;12.566;2023-03-01T05:30:43;28.05;;;14.55;;
37409;SDS011;23275;48.914;12.566;2023-03-01T05:33:09;25.00;;;14.07;;
37409;SDS011;23275;48.914;12.566;2023-03-01T05:35:38;29.65;;;15.20;;
37409;SDS011;23275;48.914;12.566;2023-03-01T05:38:05;27.17;;;14.68;;
37409;SDS011;23275;48.914;12.566;2023-03-01T05:40:32;27.67;;;14.85;;
37409;SDS011;23275;48.914;12.566;2023-03-01T05:42:58;30.63;;;14.20;;
37409;SDS011;23275;48.914;12.566;2023-03-01T05:45:24;24.30;;;13.68;;
37409;SDS011;23275;48.914;12.566;2023-03-01T05:47:51;26.38;;;14.45;;
37409;SDS011;23275;48.914;12.566;2023-03-01T05:50:19;28.60;;;13.73;;
37409;SDS011;23275;48.914;12.566;2023-03-01T05:53:12;28.33;;;15.32;;
37409;SDS011;23275;48.914;12.566;2023-03-01T05:55:40;23.98;;;13.27;;
37409;SDS011;23275;48.914;12.566;2023-03-01T05:58:08;28.38;;;13.57;;
37409;SDS011;23275;48.914;12.566;2023-03-01T06:00:39;28.45;;;14.13;;
37409;SDS011;23275;48.914;12.566;2023-03-01T06:03:05;27.95;;;14.63;;
37409;SDS011;23275;48.914;12.566;2023-03-01T06:05:30;27.70;;;14.05;;
37409;SDS011;23275;48.914;12.566;2023-03-01T06:07:58;29.38;;;15.07;;
37409;SDS011;23275;48.914;12.566;2023-03-01T06:10:25;26.50;;;14.30;;
37409;SDS011;23275;48.914;12.566;2023-03-01T06:12:50;24.85;;;14.43;;
37409;SDS011;23275;48.914;12.566;2023-03-01T06:15:16;25.00;;;13.65;;
37409;SDS011;23275;48.914;12.566;2023-03-01T06:17:43;23.08;;;12.90;;
37409;SDS011;23275;48.914;12.566;2023-03-01T06:20:12;25.38;;;13.43;;
37409;SDS011;23275;48.914;12.566;2023-03-01T06:22:39;28.20;;;14.05;;
37409;SDS011;23275;48.914;12.566;2023-03-01T06:25:06;29.80;;;14.45;;
37409;SDS011;23275;48.914;12.566;2023-03-01T06:27:32;24.73;;;13.63;;
37409;SDS011;23275;48.914;12.566;2023-03-01T06:29:58;22.48;;;13.02;;
37409;SDS011;23275;48.914;12.566;2023-03-01T06:32:23;22.92;;;14.25;;
37409;SDS011;23275;48.914;12.566;2023-03-01T06:34:49;25.15;;;13.57;;
37409;SDS011;23275;48.914;12.566;2023-03-01T06:37:15;24.45;;;14.60;;
37409;SDS011;23275;48.914;12.566;2023-03-01T06:39:41;26.77;;;13.90;;
37409;SDS011;23275;48.914;12.566;2023-03-01T06:42:09;24.65;;;13.30;;
37409;SDS011;23275;48.914;12.566;2023-03-01T06:44:36;23.60;;;13.27;;
37409;SDS011;23275;48.914;12.566;2023-03-01T06:47:02;24.23;;;14.02;;
37409;SDS011;23275;48.914;12.566;2023-03-01T06:49:28;28.52;;;13.30;;
37409;SDS011;23275;48.914;12.566;2023-03-01T06:51:55;23.98;;;13.65;;
37409;SDS011;23275;48.914;12.566;2023-03-01T06:54:21;26.95;;;13.00;;
37409;SDS011;23275;48.914;12.566;2023-03-01T06:56:49;22.40;;;13.05;;
37409;SDS011;23275;48.914;12.566;2023-03-01T06:59:15;24.25;;;12.68;;
37409;SDS011;23275;48.914;12.566;2023-03-01T07:01:41;21.55;;;13.18;;
37409;SDS011;23275;48.914;12.566;2023-03-01T07:04:08;22.20;;;12.98;;
37409;SDS011;23275;48.914;12.566;2023-03-01T07:06:34;21.20;;;12.25;;
37409;SDS011;23275;48.914;12.566;2023-03-01T07:08:59;23.65;;;12.60;;
37409;SDS011;23275;48.914;12.566;2023-03-01T07:11:25;22.02;;;12.80;;
37409;SDS011;23275;48.914;12.566;2023-03-01T07:13:50;24.48;;;13.13;;
37409;SDS011;23275;48.914;12.566;2023-03-01T07:16:16;20.23;;;12.30;;
37409;SDS011;23275;48.914;12.566;2023-03-01T07:18:41;22.02;;;12.38;;
37409;SDS011;23275;48.914;12.566;2023-03-01T07:21:07;21.00;;;11.90;;
37409;SDS011;23275;48.914;12.566;2023-03-01T07:23:36;21.40;;;12.52;;
37409;SDS011;23275;48.914;12.566;2023-03-01T07:26:01;20.67;;;12.95;;
37409;SDS011;23275;48.914;12.566;2023-03-01T07:28:27;20.13;;;12.68;;
37409;SDS011;23275;48.914;12.566;2023-03-01T07:30:53;21.10;;;12.75;;
37409;SDS011;23275;48.914;12.566;2023-03-01T07:33:20;19.73;;;11.75;;
37409;SDS011;23275;48.914;12.566;2023-03-01T07:35:45;27.17;;;12.23;;
37409;SDS011;23275;48.914;12.566;2023-03-01T07:38:11;20.52;;;12.57;;
37409;SDS011;23275;48.914;12.566;2023-03-01T07:40:36;22.67;;;12.85;;
37409;SDS011;23275;48.914;12.566;2023-03-01T07:43:02;19.92;;;13.05;;
37409;SDS011;23275;48.914;12.566;2023-03-01T07:45:28;21.27;;;12.48;;
37409;SDS011;23275;48.914;12.566;2023-03-01T07:47:54;20.40;;;13.82;;
37409;SDS011;23275;48.914;12.566;2023-03-01T07:50:20;19.13;;;12.60;;
37409;SDS011;23275;48.914;12.566;2023-03-01T07:52:47;19.38;;;12.60;;
37409;SDS011;23275;48.914;12.566;2023-03-01T07:55:14;19.20;;;11.60;;
37409;SDS011;23275;48.914;12.566;2023-03-01T07:57:41;20.40;;;12.95;;
37409;SDS011;23275;48.914;12.566;2023-03-01T08:00:08;20.05;;;11.93;;
37409;SDS011;23275;48.914;12.566;2023-03-01T08:02:35;17.70;;;11.55;;
37409;SDS011;23275;48.914;12.566;2023-03-01T08:05:01;19.65;;;12.60;;
37409;SDS011;23275;48.914;12.566;2023-03-01T08:07:26;19.52;;;12.85;;
37409;SDS011;23275;48.914;12.566;2023-03-01T08:09:52;21.13;;;12.65;;
37409;SDS011;23275;48.914;12.566;2023-03-01T08:12:17;21.35;;;12.75;;
37409;SDS011;23275;48.914;12.566;2023-03-01T08:14:43;20.30;;;12.85;;
37409;SDS011;23275;48.914;12.566;2023-03-01T08:17:08;22.73;;;13.02;;
37409;SDS011;23275;48.914;12.566;2023-03-01T08:19:34;24.05;;;13.23;;
37409;SDS011;23275;48.914;12.566;2023-03-01T08:22:02;20.17;;;13.35;;
37409;SDS011;23275;48.914;12.566;2023-03-01T08:24:28;17.50;;;11.77;;
37409;SDS011;23275;48.914;12.566;2023-03-01T08:26:54;18.50;;;12.07;;
37409;SDS011;23275;48.914;12.566;2023-03-01T08:29:20;22.15;;;13.20;;
37409;SDS011;23275;48.914;12.566;2023-03-01T08:31:46;22.35;;;12.88;;
37409;SDS011;23275;48.914;12.566;2023-03-01T08:34:14;20.13;;;12.80;;
37409;SDS011;23275;48.914;12.566;2023-03-01T08:36:41;17.10;;;12.10;;
37409;SDS011;23275;48.914;12.566;2023-03-01T08:39:09;18.23;;;11.27;;
37409;SDS011;23275;48.914;12.566;2023-03-01T08:41:36;17.27;;;11.93;;
37409;SDS011;23275;48.914;12.566;2023-03-01T08:44:03;16.73;;;10.98;;
37409;SDS011;23275;48.914;12.566;2023-03-01T08:46:30;16.60;;;11.80;;
37409;SDS011;23275;48.914;12.566;2023-03-01T08:48:57;17.75;;;11.30;;
37409;SDS011;23275;48.914;12.566;2023-03-01T08:51:23;16.30;;;10.93;;
37409;SDS011;23275;48.914;12.566;2023-03-01T08:53:50;15.55;;;11.13;;
37409;SDS011;23275;48.914;12.566;2023-03-01T08:56:16;14.52;;;10.32;;
37409;SDS011;23275;48.914;12.566;2023-03-01T08:58:44;12.70;;;9.98;;
37409;SDS011;23275;48.914;12.566;2023-03-01T09:01:14;15.15;;;10.70;;
37409;SDS011;23275;48.914;12.566;2023-03-01T09:03:42;17.02;;;10.50;;
37409;SDS011;23275;48.914;12.566;2023-03-01T09:06:08;15.68;;;10.70;;
37409;SDS011;23275;48.914;12.566;2023-03-01T09:08:35;14.70;;;10.02;;
37409;SDS011;23275;48.914;12.566;2023-03-01T09:11:02;21.58;;;11.70;;
37409;SDS011;23275;48.914;12.566;2023-03-01T09:13:29;13.63;;;9.65;;
37409;SDS011;23275;48.914;12.566;2023-03-01T09:15:58;13.50;;;9.27;;
37409;SDS011;23275;48.914;12.566;2023-03-01T09:18:24;11.75;;;8.88;;
37409;SDS011;23275;48.914;12.566;2023-03-01T09:20:49;11.68;;;8.75;;
37409;SDS011;23275;48.914;12.566;2023-03-01T09:23:15;11.43;;;9.07;;
37409;SDS011;23275;48.914;12.566;2023-03-01T09:25:40;13.23;;;8.95;;
37409;SDS011;23275;48.914;12.566;2023-03-01T09:28:06;11.77;;;9.00;;
37409;SDS011;23275;48.914;12.566;2023-03-01T09:30:32;12.25;;;9.43;;
37409;SDS011;23275;48.914;12.566;2023-03-01T09:32:57;13.57;;;9.02;;
37409;SDS011;23275;48.914;12.566;2023-03-01T09:35:23;17.67;;;9.48;;
37409;SDS011;23275;48.914;12.566;2023-03-01T09:37:49;13.63;;;9.88;;
37409;SDS011;23275;48.914;12.566;2023-03-01T09:40:16;12.80;;;9.30;;
37409;SDS011;23275;48.914;12.566;2023-03-01T09:43:02;12.70;;;9.50;;
37409;SDS011;23275;48.914;12.566;2023-03-01T09:45:41;11.93;;;9.00;;
37409;SDS011;23275;48.914;12.566;2023-03-01T09:48:14;12.30;;;9.20;;
37409;SDS011;23275;48.914;12.566;2023-03-01T09:50:43;13.18;;;9.43;;
37409;SDS011;23275;48.914;12.566;2023-03-01T09:53:26;11.82;;;9.52;;
37409;SDS011;23275;48.914;12.566;2023-03-01T09:58:48;11.33;;;8.50;;
37409;SDS011;23275;48.914;12.566;2023-03-01T10:01:33;13.90;;;9.60;;
37409;SDS011;23275;48.914;12.566;2023-03-01T10:04:12;14.80;;;9.50;;
37409;SDS011;23275;48.914;12.566;2023-03-01T10:09:36;16.08;;;10.30;;
37409;SDS011;23275;48.914;12.566;2023-03-01T10:12:04;14.90;;;10.30;;
37409;SDS011;23275;48.914;12.566;2023-03-01T10:14:48;14.25;;;9.82;;
37409;SDS011;23275;48.914;12.566;2023-03-01T10:19:53;12.68;;;9.50;;
37409;SDS011;23275;48.914;12.566;2023-03-01T10:24:49;13.82;;;9.95;;
37409;SDS011;23275;48.914;12.566;2023-03-01T10:27:21;14.70;;;10.20;;
37409;SDS011;23275;48.914;12.566;2023-03-01T10:32:26;15.05;;;9.60;;
37409;SDS011;23275;48.914;12.566;2023-03-01T10:34:51;11.80;;;8.77;;
37409;SDS011;23275;48.914;12.566;2023-03-01T10:37:18;13.18;;;9.63;;
37409;SDS011;23275;48.914;12.566;2023-03-01T10:42:30;14.35;;;9.98;;
37409;SDS011;23275;48.914;12.566;2023-03-01T10:44:58;11.52;;;8.70;;
37409;SDS011;23275;48.914;12.566;2023-03-01T10:48:03;16.42;;;9.70;;
37409;SDS011;23275;48.914;12.566;2023-03-01T10:50:28;16.58;;;11.88;;
37409;SDS011;23275;48.914;12.566;2023-03-01T10:52:55;15.38;;;10.27;;
37409;SDS011;23275;48.914;12.566;2023-03-01T10:55:36;12.40;;;9.88;;
37409;SDS011;23275;48.914;12.566;2023-03-01T10:58:08;12.43;;;10.38;;
37409;SDS011;23275;48.914;12.566;2023-03-01T11:00:51;12.32;;;9.10;;
37409;SDS011;23275;48.914;12.566;2023-03-01T11:03:38;12.63;;;8.88;;
37409;SDS011;23275;48.914;12.566;2023-03-01T11:11:18;12.10;;;9.15;;
37409;SDS011;23275;48.914;12.566;2023-03-01T11:13:57;13.77;;;10.15;;
37409;SDS011;23275;48.914;12.566;2023-03-01T11:16:25;16.27;;;11.18;;
37409;SDS011;23275;48.914;12.566;2023-03-01T11:19:20;15.82;;;10.50;;
37409;SDS011;23275;48.914;12.566;2023-03-01T11:24:42;16.95;;;11.07;;
37409;SDS011;23275;48.914;12.566;2023-03-01T11:27:16;14.35;;;9.75;;
37409;SDS011;23275;48.914;12.566;2023-03-01T11:29:46;15.73;;;10.45;;
37409;SDS011;23275;48.914;12.566;2023-03-01T11:32:29;14.48;;;9.57;;
37409;SDS011;23275;48.914;12.566;2023-03-01T11:35:05;16.40;;;9.98;;
37409;SDS011;23275;48.914;12.566;2023-03-01T11:37:59;15.27;;;10.02;;
37409;SDS011;23275;48.914;12.566;2023-03-01T11:40:41;17.88;;;10.80;;
37409;SDS011;23275;48.914;12.566;2023-03-01T11:52:03;19.17;;;10.68;;
37409;SDS011;23275;48.914;12.566;2023-03-01T11:57:37;16.20;;;10.77;;
37409;SDS011;23275;48.914;12.566;2023-03-01T12:02:56;16.45;;;10.40;;
37409;SDS011;23275;48.914;12.566;2023-03-01T12:06:04;16.60;;;10.40;;
37409;SDS011;23275;48.914;12.566;2023-03-01T12:12:03;16.80;;;10.45;;
37409;SDS011;23275;48.914;12.566;2023-03-01T12:19:59;19.40;;;10.75;;
37409;SDS011;23275;48.914;12.566;2023-03-01T12:22:44;18.67;;;10.50;;
37409;SDS011;23275;48.914;12.566;2023-03-01T12:28:25;16.83;;;10.85;;
37409;SDS011;23275;48.914;12.566;2023-03-01T12:31:11;20.73;;;11.07;;
37409;SDS011;23275;48.914;12.566;2023-03-01T12:36:22;18.23;;;11.65;;
37409;SDS011;23275;48.914;12.566;2023-03-01T12:39:07;17.25;;;11.70;;
37409;SDS011;23275;48.914;12.566;2023-03-01T12:44:51;17.27;;;11.43;;
37409;SDS011;23275;48.914;12.566;2023-03-01T12:50:04;21.10;;;11.90;;
37409;SDS011;23275;48.914;12.566;2023-03-01T12:52:39;20.17;;;11.45;;
37409;SDS011;23275;48.914;12.566;2023-03-01T12:55:18;18.45;;;11.40;;
37409;SDS011;23275;48.914;12.566;2023-03-01T12:58:02;17.00;;;11.23;;
37409;SDS011;23275;48.914;12.566;2023-03-01T13:11:03;17.50;;;11.20;;
37409;SDS011;23275;48.914;12.566;2023-03-01T13:13:30;20.95;;;12.63;;
37409;SDS011;23275;48.914;12.566;2023-03-01T13:15:57;22.55;;;14.10;;
37409;SDS011;23275;48.914;12.566;2023-03-01T13:18:42;19.42;;;12.38;;
37409;SDS011;23275;48.914;12.566;2023-03-01T13:21:08;21.05;;;12.90;;
37409;SDS011;23275;48.914;12.566;2023-03-01T13:23:35;19.05;;;12.70;;
37409;SDS011;23275;48.914;12.566;2023-03-01T13:28:54;18.52;;;11.65;;
37409;SDS011;23275;48.914;12.566;2023-03-01T13:33:54;18.23;;;11.57;;
37409;SDS011;23275;48.914;12.566;2023-03-01T13:41:56;18.27;;;12.57;;
37409;SDS011;23275;48.914;12.566;2023-03-01T13:49:34;24.17;;;13.85;;
37409;SDS011;23275;48.914;12.566;2023-03-01T13:52:17;22.67;;;12.93;;
37409;SDS011;23275;48.914;12.566;2023-03-01T13:54:55;22.13;;;13.80;;
37409;SDS011;23275;48.914;12.566;2023-03-01T13:57:23;21.40;;;13.05;;
37409;SDS011;23275;48.914;12.566;2023-03-01T13:59:53;25.90;;;13.73;;
37409;SDS011;23275;48.914;12.566;2023-03-01T14:02:18;22.45;;;13.52;;
37409;SDS011;23275;48.914;12.566;2023-03-01T14:04:44;25.25;;;13.90;;
37409;SDS011;23275;48.914;12.566;2023-03-01T14:07:22;23.02;;;14.45;;
37409;SDS011;23275;48.914;12.566;2023-03-01T14:09:53;19.92;;;13.15;;
37409;SDS011;23275;48.914;12.566;2023-03-01T14:20:55;21.98;;;13.50;;
37409;SDS011;23275;48.914;12.566;2023-03-01T14:23:22;21.20;;;13.18;;
37409;SDS011;23275;48.914;12.566;2023-03-01T14:25:49;20.70;;;12.50;;
37409;SDS011;23275;48.914;12.566;2023-03-01T14:28:19;21.25;;;13.32;;
37409;SDS011;23275;48.914;12.566;2023-03-01T14:30:49;19.70;;;13.20;;
37409;SDS011;23275;48.914;12.566;2023-03-01T14:33:26;20.58;;;12.48;;
37409;SDS011;23275;48.914;12.566;2023-03-01T14:35:58;21.65;;;13.23;;
37409;SDS011;23275;48.914;12.566;2023-03-01T14:38:30;20.65;;;12.98;;
37409;SDS011;23275;48.914;12.566;2023-03-01T14:41:09;22.30;;;12.70;;
37409;SDS011;23275;48.914;12.566;2023-03-01T14:43:53;21.60;;;12.88;;
37409;SDS011;23275;48.914;12.566;2023-03-01T14:49:05;23.25;;;13.32;;
37409;SDS011;23275;48.914;12.566;2023-03-01T14:51:40;22.83;;;12.40;;
37409;SDS011;23275;48.914;12.566;2023-03-01T14:54:18;19.65;;;12.00;;
37409;SDS011;23275;48.914;12.566;2023-03-01T14:56:45;21.15;;;12.60;;
37409;SDS011;23275;48.914;12.566;2023-03-01T14:59:12;18.48;;;11.82;;
37409;SDS011;23275;48.914;12.566;2023-03-01T15:01:39;18.92;;;12.55;;
37409;SDS011;23275;48.914;12.566;2023-03-01T15:04:06;22.40;;;13.38;;
37409;SDS011;23275;48.914;12.566;2023-03-01T15:06:37;21.10;;;11.98;;
37409;SDS011;23275;48.914;12.566;2023-03-01T15:09:03;22.73;;;11.68;;
37409;SDS011;23275;48.914;12.566;2023-03-01T15:11:30;20.08;;;12.75;;
37409;SDS011;23275;48.914;12.566;2023-03-01T15:13:58;20.20;;;12.68;;
37409;SDS011;23275;48.914;12.566;2023-03-01T15:16:25;21.70;;;12.38;;
37409;SDS011;23275;48.914;12.566;2023-03-01T15:18:55;18.15;;;12.38;;
37409;SDS011;23275;48.914;12.566;2023-03-01T15:21:24;19.88;;;12.68;;
37409;SDS011;23275;48.914;12.566;2023-03-01T15:24:17;20.10;;;11.48;;
37409;SDS011;23275;48.914;12.566;2023-03-01T15:26:51;16.80;;;11.40;;
37409;SDS011;23275;48.914;12.566;2023-03-01T15:29:23;17.48;;;11.52;;
37409;SDS011;23275;48.914;12.566;2023-03-01T15:32:01;19.15;;;12.30;;
37409;SDS011;23275;48.914;12.566;2023-03-01T15:34:36;20.87;;;11.87;;
37409;SDS011;23275;48.914;12.566;2023-03-01T15:37:03;20.27;;;11.35;;
37409;SDS011;23275;48.914;12.566;2023-03-01T15:39:32;18.98;;;11.10;;
37409;SDS011;23275;48.914;12.566;2023-03-01T15:42:07;18.75;;;11.13;;
37409;SDS011;23275;48.914;12.566;2023-03-01T15:44:39;19.13;;;10.77;;
37409;SDS011;23275;48.914;12.566;2023-03-01T15:49:50;19.43;;;10.63;;
37409;SDS011;23275;48.914;12.566;2023-03-01T15:52:22;18.30;;;11.07;;
37409;SDS011;23275;48.914;12.566;2023-03-01T15:55:02;18.58;;;10.82;;
37409;SDS011;23275;48.914;12.566;2023-03-01T15:57:30;20.13;;;10.95;;
37409;SDS011;23275;48.914;12.566;2023-03-01T15:59:55;22.13;;;11.93;;
37409;SDS011;23275;48.914;12.566;2023-03-01T16:02:22;17.95;;;10.88;;
37409;SDS011;23275;48.914;12.566;2023-03-01T16:04:49;21.95;;;10.32;;
37409;SDS011;23275;48.914;12.566;2023-03-01T16:07:15;20.90;;;11.60;;
37409;SDS011;23275;48.914;12.566;2023-03-01T16:09:40;20.42;;;11.65;;
37409;SDS011;23275;48.914;12.566;2023-03-01T16:12:09;18.27;;;10.52;;
37409;SDS011;23275;48.914;12.566;2023-03-01T16:14:38;18.08;;;11.00;;
37409;SDS011;23275;48.914;12.566;2023-03-01T16:17:04;16.33;;;10.57;;
37409;SDS011;23275;48.914;12.566;2023-03-01T16:19:30;19.60;;;11.07;;
37409;SDS011;23275;48.914;12.566;2023-03-01T16:21:55;18.60;;;10.90;;
37409;SDS011;23275;48.914;12.566;2023-03-01T16:24:21;19.92;;;11.52;;